sensor_id;sensor_type;location;lat;lon;timestamp;P1;durP1;ratioP1;P2;durP2;ratioP2
8177;SDS011;4130;48.740;9.132;2024-03-02T00:01:26;10.87;;;7.57;;
8177;SDS011;4130;48.740;9.132;2024-03-02T00:03:53;9.50;;;7.27;;
8177;SDS011;4130;48.740;9.132;2024-03-02T00:06:20;10.50;;;7.23;;
8177;SDS011;4130;48.740;9.132;2024-03-02T00:08:47;10.47;;;7.77;;
8177;SDS011;4130;48.740;9.132;2024-03-02T00:11:15;11.07;;;7.47;;
8177;SDS011;4130;48.740;9.132;2024-03-02T00:13:44;9.87;;;7.53;;
8177;SDS011;4130;48.740;9.132;2024-03-02T00:16:11;9.40;;;6.93;;
8177;SDS011;4130;48.740;9.132;2024-03-02T00:18:38;10.27;;;7.67;;
8177;SDS011;4130;48.740;9.132;2024-03-02T00:21:06;9.40;;;7.03;;
8177;SDS011;4130;48.740;9.132;2024-03-02T00:23:35;10.67;;;7.33;;
8177;SDS011;4130;48.740;9.132;2024-03-02T00:26:02;11.30;;;7.87;;
8177;SDS011;4130;48.740;9.132;2024-03-02T00:28:30;10.10;;;7.50;;
8177;SDS011;4130;48.740;9.132;2024-03-02T00:31:01;11.47;;;7.83;;
8177;SDS011;4130;48.740;9.132;2024-03-02T00:33:30;9.53;;;7.30;;
8177;SDS011;4130;48.740;9.132;2024-03-02T00:35:59;10.20;;;7.77;;
8177;SDS011;4130;48.740;9.132;2024-03-02T00:38:26;8.73;;;7.47;;
8177;SDS011;4130;48.740;9.132;2024-03-02T00:40:53;8.07;;;6.80;;
8177;SDS011;4130;48.740;9.132;2024-03-02T00:43:45;10.00;;;6.57;;
8177;SDS011;4130;48.740;9.132;2024-03-02T00:46:19;10.90;;;7.33;;
8177;SDS011;4130;48.740;9.132;2024-03-02T00:48:53;9.60;;;7.37;;
8177;SDS011;4130;48.740;9.132;2024-03-02T00:51:21;10.57;;;7.20;;
8177;SDS011;4130;48.740;9.132;2024-03-02T00:53:49;15.93;;;11.10;;
8177;SDS011;4130;48.740;9.132;2024-03-02T00:56:16;17.60;;;10.53;;
8177;SDS011;4130;48.740;9.132;2024-03-02T00:58:43;19.20;;;11.57;;
8177;SDS011;4130;48.740;9.132;2024-03-02T01:03:53;20.23;;;12.60;;
8177;SDS011;4130;48.740;9.132;2024-03-02T01:06:20;12.30;;;8.73;;
8177;SDS011;4130;48.740;9.132;2024-03-02T01:08:48;12.73;;;9.00;;
8177;SDS011;4130;48.740;9.132;2024-03-02T01:11:16;11.53;;;7.80;;
8177;SDS011;4130;48.740;9.132;2024-03-02T01:13:44;9.23;;;7.67;;
8177;SDS011;4130;48.740;9.132;2024-03-02T01:16:11;10.67;;;7.57;;
8177;SDS011;4130;48.740;9.132;2024-03-02T01:18:38;10.30;;;7.37;;
8177;SDS011;4130;48.740;9.132;2024-03-02T01:21:06;9.27;;;6.77;;
8177;SDS011;4130;48.740;9.132;2024-03-02T01:23:34;10.07;;;7.30;;
8177;SDS011;4130;48.740;9.132;2024-03-02T01:26:01;9.63;;;7.40;;
8177;SDS011;4130;48.740;9.132;2024-03-02T01:28:28;8.93;;;6.90;;
8177;SDS011;4130;48.740;9.132;2024-03-02T01:30:55;9.63;;;7.63;;
8177;SDS011;4130;48.740;9.132;2024-03-02T01:33:22;8.37;;;7.00;;
8177;SDS011;4130;48.740;9.132;2024-03-02T01:35:49;9.40;;;6.90;;
8177;SDS011;4130;48.740;9.132;2024-03-02T01:38:18;9.43;;;7.07;;
8177;SDS011;4130;48.740;9.132;2024-03-02T01:40:45;10.37;;;7.17;;
8177;SDS011;4130;48.740;9.132;2024-03-02T01:43:12;12.20;;;7.67;;
8177;SDS011;4130;48.740;9.132;2024-03-02T01:45:39;8.20;;;6.90;;
8177;SDS011;4130;48.740;9.132;2024-03-02T01:48:07;9.87;;;7.17;;
8177;SDS011;4130;48.740;9.132;2024-03-02T01:50:34;8.97;;;6.93;;
8177;SDS011;4130;48.740;9.132;2024-03-02T01:53:01;7.63;;;6.83;;
8177;SDS011;4130;48.740;9.132;2024-03-02T01:55:30;9.67;;;7.20;;
8177;SDS011;4130;48.740;9.132;2024-03-02T01:57:58;9.67;;;7.67;;
8177;SDS011;4130;48.740;9.132;2024-03-02T02:00:25;8.13;;;6.60;;
8177;SDS011;4130;48.740;9.132;2024-03-02T02:02:52;10.13;;;6.83;;
8177;SDS011;4130;48.740;9.132;2024-03-02T02:05:19;10.37;;;6.73;;
8177;SDS011;4130;48.740;9.132;2024-03-02T02:07:48;9.27;;;6.43;;
8177;SDS011;4130;48.740;9.132;2024-03-02T02:10:15;8.93;;;6.80;;
8177;SDS011;4130;48.740;9.132;2024-03-02T02:12:44;7.67;;;6.50;;
8177;SDS011;4130;48.740;9.132;2024-03-02T02:15:24;8.37;;;6.70;;
8177;SDS011;4130;48.740;9.132;2024-03-02T02:17:52;9.07;;;6.83;;
8177;SDS011;4130;48.740;9.132;2024-03-02T02:20:19;7.30;;;5.97;;
8177;SDS011;4130;48.740;9.132;2024-03-02T02:22:55;10.00;;;6.77;;
8177;SDS011;4130;48.740;9.132;2024-03-02T02:25:23;9.93;;;7.10;;
8177;SDS011;4130;48.740;9.132;2024-03-02T02:27:50;9.03;;;7.47;;
8177;SDS011;4130;48.740;9.132;2024-03-02T02:30:21;8.60;;;7.27;;
8177;SDS011;4130;48.740;9.132;2024-03-02T02:32:49;9.93;;;7.10;;
8177;SDS011;4130;48.740;9.132;2024-03-02T02:35:16;8.57;;;6.70;;
8177;SDS011;4130;48.740;9.132;2024-03-02T02:37:43;10.30;;;7.57;;
8177;SDS011;4130;48.740;9.132;2024-03-02T02:40:13;9.57;;;7.00;;
8177;SDS011;4130;48.740;9.132;2024-03-02T02:42:41;9.83;;;7.17;;
8177;SDS011;4130;48.740;9.132;2024-03-02T02:45:09;10.13;;;6.73;;
8177;SDS011;4130;48.740;9.132;2024-03-02T02:47:39;9.63;;;6.97;;
8177;SDS011;4130;48.740;9.132;2024-03-02T02:50:07;8.93;;;6.83;;
8177;SDS011;4130;48.740;9.132;2024-03-02T02:52:34;9.87;;;7.43;;
8177;SDS011;4130;48.740;9.132;2024-03-02T02:55:06;10.77;;;7.43;;
8177;SDS011;4130;48.740;9.132;2024-03-02T02:57:36;11.47;;;7.47;;
8177;SDS011;4130;48.740;9.132;2024-03-02T03:00:05;12.70;;;8.43;;
8177;SDS011;4130;48.740;9.132;2024-03-02T03:02:35;9.53;;;8.10;;
8177;SDS011;4130;48.740;9.132;2024-03-02T03:05:04;11.97;;;8.23;;
8177;SDS011;4130;48.740;9.132;2024-03-02T03:07:32;11.80;;;7.90;;
8177;SDS011;4130;48.740;9.132;2024-03-02T03:09:59;11.60;;;7.53;;
8177;SDS011;4130;48.740;9.132;2024-03-02T03:12:28;10.80;;;7.53;;
8177;SDS011;4130;48.740;9.132;2024-03-02T03:18:19;10.37;;;7.37;;
8177;SDS011;4130;48.740;9.132;2024-03-02T03:20:46;12.93;;;8.87;;
8177;SDS011;4130;48.740;9.132;2024-03-02T03:23:13;14.83;;;8.87;;
8177;SDS011;4130;48.740;9.132;2024-03-02T03:25:41;14.40;;;8.17;;
8177;SDS011;4130;48.740;9.132;2024-03-02T03:28:08;12.37;;;8.83;;
8177;SDS011;4130;48.740;9.132;2024-03-02T03:30:36;12.00;;;8.07;;
8177;SDS011;4130;48.740;9.132;2024-03-02T03:33:03;11.40;;;8.20;;
8177;SDS011;4130;48.740;9.132;2024-03-02T03:35:32;13.27;;;8.13;;
8177;SDS011;4130;48.740;9.132;2024-03-02T03:37:59;13.93;;;8.70;;
8177;SDS011;4130;48.740;9.132;2024-03-02T03:40:26;15.23;;;9.20;;
8177;SDS011;4130;48.740;9.132;2024-03-02T03:42:53;12.20;;;9.30;;
8177;SDS011;4130;48.740;9.132;2024-03-02T03:45:21;14.27;;;8.37;;
8177;SDS011;4130;48.740;9.132;2024-03-02T03:47:51;12.17;;;8.90;;
8177;SDS011;4130;48.740;9.132;2024-03-02T03:50:18;13.47;;;9.00;;
8177;SDS011;4130;48.740;9.132;2024-03-02T03:52:46;13.10;;;9.27;;
8177;SDS011;4130;48.740;9.132;2024-03-02T03:55:13;12.77;;;9.20;;
8177;SDS011;4130;48.740;9.132;2024-03-02T03:57:40;11.83;;;8.67;;
8177;SDS011;4130;48.740;9.132;2024-03-02T04:00:08;12.13;;;8.67;;
8177;SDS011;4130;48.740;9.132;2024-03-02T04:02:37;11.87;;;8.53;;
8177;SDS011;4130;48.740;9.132;2024-03-02T04:05:04;11.80;;;8.90;;
8177;SDS011;4130;48.740;9.132;2024-03-02T04:07:34;12.23;;;8.40;;
8177;SDS011;4130;48.740;9.132;2024-03-02T04:10:08;10.40;;;7.90;;
8177;SDS011;4130;48.740;9.132;2024-03-02T04:12:36;13.07;;;8.90;;
8177;SDS011;4130;48.740;9.132;2024-03-02T04:15:03;11.17;;;8.30;;
8177;SDS011;4130;48.740;9.132;2024-03-02T04:17:32;14.50;;;8.93;;
8177;SDS011;4130;48.740;9.132;2024-03-02T04:20:00;11.07;;;8.33;;
8177;SDS011;4130;48.740;9.132;2024-03-02T04:22:29;13.87;;;9.23;;
8177;SDS011;4130;48.740;9.132;2024-03-02T04:24:57;12.47;;;8.83;;
8177;SDS011;4130;48.740;9.132;2024-03-02T04:27:25;13.63;;;9.43;;
8177;SDS011;4130;48.740;9.132;2024-03-02T04:29:52;12.20;;;8.90;;
8177;SDS011;4130;48.740;9.132;2024-03-02T04:32:19;13.13;;;8.77;;
8177;SDS011;4130;48.740;9.132;2024-03-02T04:34:46;15.07;;;9.10;;
8177;SDS011;4130;48.740;9.132;2024-03-02T04:37:13;13.23;;;8.33;;
8177;SDS011;4130;48.740;9.132;2024-03-02T04:39:40;13.33;;;9.13;;
8177;SDS011;4130;48.740;9.132;2024-03-02T04:42:07;12.93;;;8.30;;
8177;SDS011;4130;48.740;9.132;2024-03-02T04:44:35;15.70;;;9.50;;
8177;SDS011;4130;48.740;9.132;2024-03-02T04:47:03;14.10;;;9.17;;
8177;SDS011;4130;48.740;9.132;2024-03-02T04:49:30;12.90;;;8.77;;
8177;SDS011;4130;48.740;9.132;2024-03-02T04:51:57;13.27;;;8.87;;
8177;SDS011;4130;48.740;9.132;2024-03-02T04:54:26;13.97;;;9.07;;
8177;SDS011;4130;48.740;9.132;2024-03-02T04:56:53;13.27;;;9.40;;
8177;SDS011;4130;48.740;9.132;2024-03-02T04:59:20;14.73;;;9.00;;
8177;SDS011;4130;48.740;9.132;2024-03-02T05:01:49;14.23;;;9.87;;
8177;SDS011;4130;48.740;9.132;2024-03-02T05:04:15;15.50;;;9.83;;
8177;SDS011;4130;48.740;9.132;2024-03-02T05:06:43;13.60;;;9.20;;
8177;SDS011;4130;48.740;9.132;2024-03-02T05:09:15;13.47;;;9.73;;
8177;SDS011;4130;48.740;9.132;2024-03-02T05:11:42;17.90;;;10.00;;
8177;SDS011;4130;48.740;9.132;2024-03-02T05:14:26;16.73;;;10.20;;
8177;SDS011;4130;48.740;9.132;2024-03-02T05:16:56;14.90;;;10.20;;
8177;SDS011;4130;48.740;9.132;2024-03-02T05:19:23;17.40;;;10.40;;
8177;SDS011;4130;48.740;9.132;2024-03-02T05:21:50;18.33;;;10.23;;
8177;SDS011;4130;48.740;9.132;2024-03-02T05:24:17;12.60;;;9.53;;
8177;SDS011;4130;48.740;9.132;2024-03-02T05:26:44;16.80;;;10.73;;
8177;SDS011;4130;48.740;9.132;2024-03-02T05:29:11;16.00;;;9.87;;
8177;SDS011;4130;48.740;9.132;2024-03-02T05:31:39;15.40;;;10.03;;
8177;SDS011;4130;48.740;9.132;2024-03-02T05:34:08;14.97;;;9.57;;
8177;SDS011;4130;48.740;9.132;2024-03-02T05:36:35;13.90;;;9.43;;
8177;SDS011;4130;48.740;9.132;2024-03-02T05:39:04;12.57;;;9.07;;
8177;SDS011;4130;48.740;9.132;2024-03-02T05:41:34;13.77;;;9.43;;
8177;SDS011;4130;48.740;9.132;2024-03-02T05:44:01;15.27;;;9.10;;
8177;SDS011;4130;48.740;9.132;2024-03-02T05:46:28;13.03;;;9.30;;
8177;SDS011;4130;48.740;9.132;2024-03-02T05:48:55;14.50;;;9.37;;
8177;SDS011;4130;48.740;9.132;2024-03-02T05:51:23;17.47;;;10.27;;
8177;SDS011;4130;48.740;9.132;2024-03-02T05:53:51;14.60;;;9.60;;
8177;SDS011;4130;48.740;9.132;2024-03-02T05:58:48;13.27;;;9.47;;
8177;SDS011;4130;48.740;9.132;2024-03-02T06:01:26;15.83;;;10.83;;
8177;SDS011;4130;48.740;9.132;2024-03-02T06:03:54;14.50;;;9.00;;
8177;SDS011;4130;48.740;9.132;2024-03-02T06:06:23;15.07;;;9.13;;
8177;SDS011;4130;48.740;9.132;2024-03-02T06:08:51;15.40;;;9.30;;
8177;SDS011;4130;48.740;9.132;2024-03-02T06:11:18;13.60;;;9.80;;
8177;SDS011;4130;48.740;9.132;2024-03-02T06:13:46;15.63;;;9.50;;
8177;SDS011;4130;48.740;9.132;2024-03-02T06:16:13;16.47;;;10.00;;
8177;SDS011;4130;48.740;9.132;2024-03-02T06:18:45;16.30;;;10.40;;
8177;SDS011;4130;48.740;9.132;2024-03-02T06:21:24;14.43;;;9.87;;
8177;SDS011;4130;48.740;9.132;2024-03-02T06:23:51;16.20;;;9.67;;
8177;SDS011;4130;48.740;9.132;2024-03-02T06:26:18;15.37;;;9.97;;
8177;SDS011;4130;48.740;9.132;2024-03-02T06:28:46;23.13;;;10.60;;
8177;SDS011;4130;48.740;9.132;2024-03-02T06:31:14;15.50;;;9.83;;
8177;SDS011;4130;48.740;9.132;2024-03-02T06:33:41;15.60;;;9.97;;
8177;SDS011;4130;48.740;9.132;2024-03-02T06:36:08;14.33;;;9.57;;
8177;SDS011;4130;48.740;9.132;2024-03-02T06:38:38;15.60;;;9.70;;
8177;SDS011;4130;48.740;9.132;2024-03-02T06:41:05;16.73;;;10.87;;
8177;SDS011;4130;48.740;9.132;2024-03-02T06:43:33;16.43;;;10.53;;
8177;SDS011;4130;48.740;9.132;2024-03-02T06:45:59;19.07;;;10.33;;
8177;SDS011;4130;48.740;9.132;2024-03-02T06:48:26;15.80;;;10.10;;
8177;SDS011;4130;48.740;9.132;2024-03-02T06:50:55;17.07;;;10.10;;
8177;SDS011;4130;48.740;9.132;2024-03-02T06:53:23;13.50;;;9.70;;
8177;SDS011;4130;48.740;9.132;2024-03-02T06:55:51;14.70;;;9.73;;
8177;SDS011;4130;48.740;9.132;2024-03-02T06:58:18;15.07;;;10.07;;
8177;SDS011;4130;48.740;9.132;2024-03-02T07:00:45;14.87;;;9.80;;
8177;SDS011;4130;48.740;9.132;2024-03-02T07:05:55;16.27;;;8.83;;
8177;SDS011;4130;48.740;9.132;2024-03-02T07:08:22;13.43;;;8.73;;
8177;SDS011;4130;48.740;9.132;2024-03-02T07:10:49;14.20;;;9.37;;
8177;SDS011;4130;48.740;9.132;2024-03-02T07:13:17;15.73;;;10.10;;
8177;SDS011;4130;48.740;9.132;2024-03-02T07:15:45;15.40;;;9.97;;
8177;SDS011;4130;48.740;9.132;2024-03-02T07:18:31;12.80;;;9.13;;
8177;SDS011;4130;48.740;9.132;2024-03-02T07:20:58;16.20;;;9.40;;
8177;SDS011;4130;48.740;9.132;2024-03-02T07:23:26;12.83;;;8.80;;
8177;SDS011;4130;48.740;9.132;2024-03-02T07:25:54;12.53;;;8.63;;
8177;SDS011;4130;48.740;9.132;2024-03-02T07:28:21;16.03;;;10.53;;
8177;SDS011;4130;48.740;9.132;2024-03-02T07:30:57;12.80;;;8.57;;
8177;SDS011;4130;48.740;9.132;2024-03-02T07:33:25;12.90;;;8.57;;
8177;SDS011;4130;48.740;9.132;2024-03-02T07:35:52;15.60;;;9.83;;
8177;SDS011;4130;48.740;9.132;2024-03-02T07:38:20;13.90;;;9.07;;
8177;SDS011;4130;48.740;9.132;2024-03-02T07:40:47;14.43;;;9.07;;
8177;SDS011;4130;48.740;9.132;2024-03-02T07:43:17;13.87;;;9.10;;
8177;SDS011;4130;48.740;9.132;2024-03-02T07:45:44;13.93;;;8.73;;
8177;SDS011;4130;48.740;9.132;2024-03-02T07:48:11;11.23;;;8.60;;
8177;SDS011;4130;48.740;9.132;2024-03-02T07:50:40;12.23;;;8.33;;
8177;SDS011;4130;48.740;9.132;2024-03-02T07:53:08;14.43;;;9.60;;
8177;SDS011;4130;48.740;9.132;2024-03-02T07:55:35;12.80;;;8.43;;
8177;SDS011;4130;48.740;9.132;2024-03-02T07:58:02;12.80;;;9.27;;
8177;SDS011;4130;48.740;9.132;2024-03-02T08:00:31;13.77;;;8.47;;
8177;SDS011;4130;48.740;9.132;2024-03-02T08:02:59;9.80;;;7.63;;
8177;SDS011;4130;48.740;9.132;2024-03-02T08:05:26;12.00;;;8.20;;
8177;SDS011;4130;48.740;9.132;2024-03-02T08:07:53;10.80;;;7.80;;
8177;SDS011;4130;48.740;9.132;2024-03-02T08:10:20;10.50;;;8.03;;
8177;SDS011;4130;48.740;9.132;2024-03-02T08:12:47;11.40;;;7.80;;
8177;SDS011;4130;48.740;9.132;2024-03-02T08:15:14;13.23;;;8.00;;
8177;SDS011;4130;48.740;9.132;2024-03-02T08:17:42;10.40;;;8.13;;
8177;SDS011;4130;48.740;9.132;2024-03-02T08:20:13;12.03;;;8.20;;
8177;SDS011;4130;48.740;9.132;2024-03-02T08:22:40;9.50;;;7.63;;
8177;SDS011;4130;48.740;9.132;2024-03-02T08:25:08;8.53;;;6.43;;
8177;SDS011;4130;48.740;9.132;2024-03-02T08:27:35;7.87;;;6.50;;
8177;SDS011;4130;48.740;9.132;2024-03-02T08:30:02;13.57;;;7.57;;
8177;SDS011;4130;48.740;9.132;2024-03-02T08:32:31;11.43;;;6.73;;
8177;SDS011;4130;48.740;9.132;2024-03-02T08:34:59;9.57;;;7.13;;
8177;SDS011;4130;48.740;9.132;2024-03-02T08:37:26;10.07;;;7.10;;
8177;SDS011;4130;48.740;9.132;2024-03-02T08:39:53;8.67;;;6.97;;
8177;SDS011;4130;48.740;9.132;2024-03-02T08:42:20;9.43;;;7.27;;
8177;SDS011;4130;48.740;9.132;2024-03-02T08:44:48;10.30;;;7.47;;
8177;SDS011;4130;48.740;9.132;2024-03-02T08:47:16;12.30;;;7.57;;
8177;SDS011;4130;48.740;9.132;2024-03-02T08:49:43;9.43;;;7.67;;
8177;SDS011;4130;48.740;9.132;2024-03-02T08:52:11;8.67;;;6.60;;
8177;SDS011;4130;48.740;9.132;2024-03-02T08:54:38;8.80;;;6.40;;
8177;SDS011;4130;48.740;9.132;2024-03-02T08:57:05;11.70;;;7.03;;
8177;SDS011;4130;48.740;9.132;2024-03-02T08:59:32;7.37;;;5.93;;
8177;SDS011;4130;48.740;9.132;2024-03-02T09:02:00;8.67;;;5.97;;
8177;SDS011;4130;48.740;9.132;2024-03-02T09:04:27;7.93;;;6.20;;
8177;SDS011;4130;48.740;9.132;2024-03-02T09:06:55;6.90;;;5.40;;
8177;SDS011;4130;48.740;9.132;2024-03-02T09:09:23;8.50;;;5.37;;
8177;SDS011;4130;48.740;9.132;2024-03-02T09:11:50;7.93;;;5.67;;
8177;SDS011;4130;48.740;9.132;2024-03-02T09:14:19;5.87;;;5.27;;
8177;SDS011;4130;48.740;9.132;2024-03-02T09:16:47;8.43;;;5.43;;
8177;SDS011;4130;48.740;9.132;2024-03-02T09:19:14;5.53;;;4.93;;
8177;SDS011;4130;48.740;9.132;2024-03-02T09:21:41;11.10;;;5.07;;
8177;SDS011;4130;48.740;9.132;2024-03-02T09:24:09;4.53;;;4.13;;
8177;SDS011;4130;48.740;9.132;2024-03-02T09:26:41;4.13;;;3.73;;
8177;SDS011;4130;48.740;9.132;2024-03-02T09:29:09;5.40;;;4.10;;
8177;SDS011;4130;48.740;9.132;2024-03-02T09:31:39;4.43;;;3.80;;
8177;SDS011;4130;48.740;9.132;2024-03-02T09:34:07;4.17;;;3.77;;
8177;SDS011;4130;48.740;9.132;2024-03-02T09:36:39;3.87;;;3.47;;
8177;SDS011;4130;48.740;9.132;2024-03-02T09:39:08;4.73;;;3.97;;
8177;SDS011;4130;48.740;9.132;2024-03-02T09:41:37;5.07;;;3.80;;
8177;SDS011;4130;48.740;9.132;2024-03-02T09:44:07;6.43;;;3.60;;
8177;SDS011;4130;48.740;9.132;2024-03-02T09:46:37;4.10;;;3.40;;
8177;SDS011;4130;48.740;9.132;2024-03-02T09:49:06;5.70;;;3.33;;
8177;SDS011;4130;48.740;9.132;2024-03-02T09:51:33;3.50;;;3.07;;
8177;SDS011;4130;48.740;9.132;2024-03-02T09:54:01;3.37;;;3.07;;
8177;SDS011;4130;48.740;9.132;2024-03-02T09:56:29;3.50;;;3.20;;
8177;SDS011;4130;48.740;9.132;2024-03-02T09:58:56;3.37;;;3.03;;
8177;SDS011;4130;48.740;9.132;2024-03-02T10:01:26;2.70;;;2.40;;
8177;SDS011;4130;48.740;9.132;2024-03-02T10:03:55;3.10;;;2.80;;
8177;SDS011;4130;48.740;9.132;2024-03-02T10:06:27;4.00;;;3.07;;
8177;SDS011;4130;48.740;9.132;2024-03-02T10:08:55;4.63;;;3.13;;
8177;SDS011;4130;48.740;9.132;2024-03-02T10:11:26;3.93;;;3.40;;
8177;SDS011;4130;48.740;9.132;2024-03-02T10:14:04;4.13;;;3.10;;
8177;SDS011;4130;48.740;9.132;2024-03-02T10:16:34;3.77;;;2.90;;
8177;SDS011;4130;48.740;9.132;2024-03-02T10:19:18;3.43;;;3.00;;
8177;SDS011;4130;48.740;9.132;2024-03-02T10:21:46;3.30;;;2.97;;
8177;SDS011;4130;48.740;9.132;2024-03-02T10:24:14;3.00;;;2.70;;
8177;SDS011;4130;48.740;9.132;2024-03-02T10:26:41;3.03;;;2.70;;
8177;SDS011;4130;48.740;9.132;2024-03-02T10:29:08;3.27;;;2.97;;
8177;SDS011;4130;48.740;9.132;2024-03-02T10:31:38;3.20;;;2.77;;
8177;SDS011;4130;48.740;9.132;2024-03-02T10:34:06;2.70;;;2.50;;
8177;SDS011;4130;48.740;9.132;2024-03-02T10:36:35;3.20;;;2.80;;
8177;SDS011;4130;48.740;9.132;2024-03-02T10:39:03;4.07;;;2.50;;
8177;SDS011;4130;48.740;9.132;2024-03-02T10:41:32;7.33;;;2.27;;
8177;SDS011;4130;48.740;9.132;2024-03-02T10:44:01;2.40;;;2.20;;
8177;SDS011;4130;48.740;9.132;2024-03-02T10:46:29;2.40;;;1.70;;
8177;SDS011;4130;48.740;9.132;2024-03-02T11:19:03;2.47;;;2.28;;
8177;SDS011;4130;48.740;9.132;2024-03-02T11:21:36;2.47;;;2.23;;
8177;SDS011;4130;48.740;9.132;2024-03-02T11:27:04;2.47;;;2.10;;
8177;SDS011;4130;48.740;9.132;2024-03-02T11:29:46;2.10;;;1.98;;
8177;SDS011;4130;48.740;9.132;2024-03-02T11:32:17;3.45;;;3.10;;
8177;SDS011;4130;48.740;9.132;2024-03-02T11:34:50;4.32;;;3.33;;
8177;SDS011;4130;48.740;9.132;2024-03-02T11:37:18;1.98;;;1.80;;
8177;SDS011;4130;48.740;9.132;2024-03-02T11:39:48;2.03;;;1.83;;
8177;SDS011;4130;48.740;9.132;2024-03-02T11:42:16;1.98;;;1.88;;
8177;SDS011;4130;48.740;9.132;2024-03-02T11:44:45;2.65;;;2.45;;
8177;SDS011;4130;48.740;9.132;2024-03-02T11:47:15;1.23;;;1.10;;
8177;SDS011;4130;48.740;9.132;2024-03-02T11:49:44;1.13;;;1.00;;
8177;SDS011;4130;48.740;9.132;2024-03-02T11:52:13;0.57;;;0.57;;
8177;SDS011;4130;48.740;9.132;2024-03-02T11:54:43;0.93;;;0.90;;
8177;SDS011;4130;48.740;9.132;2024-03-02T11:57:14;0.52;;;0.52;;
8177;SDS011;4130;48.740;9.132;2024-03-02T11:59:41;0.73;;;0.73;;
8177;SDS011;4130;48.740;9.132;2024-03-02T12:02:14;0.95;;;0.88;;
8177;SDS011;4130;48.740;9.132;2024-03-02T12:04:43;1.67;;;1.02;;
8177;SDS011;4130;48.740;9.132;2024-03-02T12:07:11;1.05;;;1.00;;
8177;SDS011;4130;48.740;9.132;2024-03-02T12:09:44;0.95;;;0.95;;
8177;SDS011;4130;48.740;9.132;2024-03-02T12:12:11;1.30;;;1.20;;
8177;SDS011;4130;48.740;9.132;2024-03-02T12:14:49;6.95;;;2.25;;
8177;SDS011;4130;48.740;9.132;2024-03-02T12:17:31;1.52;;;1.30;;
8177;SDS011;4130;48.740;9.132;2024-03-02T12:19:58;1.10;;;1.00;;
8177;SDS011;4130;48.740;9.132;2024-03-02T12:22:32;0.88;;;0.88;;
8177;SDS011;4130;48.740;9.132;2024-03-02T12:24:59;2.08;;;1.17;;
8177;SDS011;4130;48.740;9.132;2024-03-02T12:27:28;1.45;;;1.20;;
8177;SDS011;4130;48.740;9.132;2024-03-02T12:29:55;3.13;;;1.27;;
8177;SDS011;4130;48.740;9.132;2024-03-02T12:32:22;1.88;;;1.40;;
8177;SDS011;4130;48.740;9.132;2024-03-02T12:34:50;1.15;;;1.00;;
8177;SDS011;4130;48.740;9.132;2024-03-02T12:37:18;3.13;;;1.13;;
8177;SDS011;4130;48.740;9.132;2024-03-02T12:39:46;1.17;;;1.05;;
8177;SDS011;4130;48.740;9.132;2024-03-02T12:42:19;1.60;;;1.50;;
8177;SDS011;4130;48.740;9.132;2024-03-02T12:44:48;4.70;;;1.70;;
8177;SDS011;4130;48.740;9.132;2024-03-02T12:47:28;5.97;;;2.05;;
8177;SDS011;4130;48.740;9.132;2024-03-02T12:49:56;2.65;;;1.20;;
8177;SDS011;4130;48.740;9.132;2024-03-02T12:52:23;2.83;;;1.38;;
8177;SDS011;4130;48.740;9.132;2024-03-02T12:54:51;1.33;;;1.23;;
8177;SDS011;4130;48.740;9.132;2024-03-02T12:57:25;1.10;;;1.10;;
8177;SDS011;4130;48.740;9.132;2024-03-02T12:59:52;1.35;;;1.25;;
8177;SDS011;4130;48.740;9.132;2024-03-02T13:02:27;2.40;;;1.35;;
8177;SDS011;4130;48.740;9.132;2024-03-02T13:04:59;1.88;;;1.60;;
8177;SDS011;4130;48.740;9.132;2024-03-02T13:07:28;1.15;;;1.05;;
8177;SDS011;4130;48.740;9.132;2024-03-02T13:09:57;1.10;;;1.00;;
8177;SDS011;4130;48.740;9.132;2024-03-02T13:12:25;1.35;;;1.25;;
8177;SDS011;4130;48.740;9.132;2024-03-02T13:18:14;1.63;;;1.52;;
8177;SDS011;4130;48.740;9.132;2024-03-02T13:20:41;1.50;;;1.40;;
8177;SDS011;4130;48.740;9.132;2024-03-02T13:23:08;2.17;;;1.40;;
8177;SDS011;4130;48.740;9.132;2024-03-02T13:25:36;1.40;;;1.30;;
8177;SDS011;4130;48.740;9.132;2024-03-02T13:28:04;1.60;;;1.35;;
8177;SDS011;4130;48.740;9.132;2024-03-02T13:30:32;1.48;;;1.38;;
8177;SDS011;4130;48.740;9.132;2024-03-02T13:32:59;1.50;;;1.40;;
8177;SDS011;4130;48.740;9.132;2024-03-02T13:35:31;1.60;;;1.50;;
8177;SDS011;4130;48.740;9.132;2024-03-02T13:37:58;1.25;;;1.23;;
8177;SDS011;4130;48.740;9.132;2024-03-02T13:40:34;3.05;;;1.70;;
8177;SDS011;4130;48.740;9.132;2024-03-02T13:43:31;1.55;;;1.40;;
8177;SDS011;4130;48.740;9.132;2024-03-02T13:46:03;1.40;;;1.30;;
8177;SDS011;4130;48.740;9.132;2024-03-02T13:48:31;1.15;;;1.10;;
8177;SDS011;4130;48.740;9.132;2024-03-02T13:51:00;1.80;;;1.45;;
8177;SDS011;4130;48.740;9.132;2024-03-02T13:53:30;1.30;;;1.20;;
8177;SDS011;4130;48.740;9.132;2024-03-02T13:56:03;1.45;;;1.35;;
8177;SDS011;4130;48.740;9.132;2024-03-02T13:58:35;1.40;;;1.33;;
8177;SDS011;4130;48.740;9.132;2024-03-02T14:01:03;1.45;;;1.35;;
8177;SDS011;4130;48.740;9.132;2024-03-02T14:03:34;1.27;;;1.20;;
8177;SDS011;4130;48.740;9.132;2024-03-02T14:06:06;1.50;;;1.40;;
8177;SDS011;4130;48.740;9.132;2024-03-02T14:08:33;1.50;;;1.40;;
8177;SDS011;4130;48.740;9.132;2024-03-02T14:11:03;1.75;;;1.23;;
8177;SDS011;4130;48.740;9.132;2024-03-02T14:13:50;1.40;;;1.30;;
8177;SDS011;4130;48.740;9.132;2024-03-02T14:16:19;2.45;;;1.30;;
8177;SDS011;4130;48.740;9.132;2024-03-02T14:18:58;0.90;;;0.90;;
8177;SDS011;4130;48.740;9.132;2024-03-02T14:21:28;3.65;;;1.27;;
8177;SDS011;4130;48.740;9.132;2024-03-02T14:23:55;3.58;;;1.65;;
8177;SDS011;4130;48.740;9.132;2024-03-02T14:26:22;1.60;;;1.30;;
8177;SDS011;4130;48.740;9.132;2024-03-02T14:32:30;1.60;;;1.15;;
8177;SDS011;4130;48.740;9.132;2024-03-02T14:35:00;1.98;;;1.02;;
8177;SDS011;4130;48.740;9.132;2024-03-02T14:37:27;130.15;;;9.40;;
8177;SDS011;4130;48.740;9.132;2024-03-02T14:39:55;7.15;;;1.85;;
8177;SDS011;4130;48.740;9.132;2024-03-02T14:42:23;18.98;;;2.05;;
8177;SDS011;4130;48.740;9.132;2024-03-02T14:44:50;25.58;;;2.78;;
8177;SDS011;4130;48.740;9.132;2024-03-02T14:50:04;4.10;;;1.45;;
8177;SDS011;4130;48.740;9.132;2024-03-02T14:52:32;4.45;;;1.27;;
8177;SDS011;4130;48.740;9.132;2024-03-02T14:55:03;1.42;;;1.27;;
8177;SDS011;4130;48.740;9.132;2024-03-02T14:57:33;3.58;;;0.80;;
8177;SDS011;4130;48.740;9.132;2024-03-02T15:00:00;0.95;;;0.90;;
8177;SDS011;4130;48.740;9.132;2024-03-02T15:02:28;1.40;;;0.98;;
8177;SDS011;4130;48.740;9.132;2024-03-02T15:04:56;1.00;;;1.00;;
8177;SDS011;4130;48.740;9.132;2024-03-02T15:07:24;1.00;;;0.95;;
8177;SDS011;4130;48.740;9.132;2024-03-02T15:10:05;1.25;;;0.70;;
8177;SDS011;4130;48.740;9.132;2024-03-02T15:12:36;0.50;;;0.50;;
8177;SDS011;4130;48.740;9.132;2024-03-02T15:15:04;1.95;;;0.88;;
8177;SDS011;4130;48.740;9.132;2024-03-02T15:17:33;1.92;;;0.93;;
8177;SDS011;4130;48.740;9.132;2024-03-02T15:20:06;0.80;;;0.80;;
8177;SDS011;4130;48.740;9.132;2024-03-02T15:22:34;2.28;;;1.00;;
8177;SDS011;4130;48.740;9.132;2024-03-02T15:25:01;3.03;;;1.30;;
8177;SDS011;4130;48.740;9.132;2024-03-02T15:27:28;1.20;;;1.10;;
8177;SDS011;4130;48.740;9.132;2024-03-02T15:29:55;9.85;;;2.00;;
8177;SDS011;4130;48.740;9.132;2024-03-02T15:32:24;45.85;;;4.78;;
8177;SDS011;4130;48.740;9.132;2024-03-02T15:34:54;5.43;;;1.35;;
8177;SDS011;4130;48.740;9.132;2024-03-02T15:37:24;4.53;;;0.93;;
8177;SDS011;4130;48.740;9.132;2024-03-02T15:39:51;0.90;;;0.90;;
8177;SDS011;4130;48.740;9.132;2024-03-02T15:42:18;1.00;;;1.00;;
8177;SDS011;4130;48.740;9.132;2024-03-02T15:44:48;2.63;;;1.37;;
8177;SDS011;4130;48.740;9.132;2024-03-02T15:47:15;1.10;;;1.10;;
8177;SDS011;4130;48.740;9.132;2024-03-02T15:49:42;1.47;;;1.30;;
8177;SDS011;4130;48.740;9.132;2024-03-02T15:52:09;1.10;;;1.00;;
8177;SDS011;4130;48.740;9.132;2024-03-02T15:54:40;0.93;;;0.93;;
8177;SDS011;4130;48.740;9.132;2024-03-02T15:57:08;1.20;;;1.10;;
8177;SDS011;4130;48.740;9.132;2024-03-02T15:59:36;1.37;;;1.20;;
8177;SDS011;4130;48.740;9.132;2024-03-02T16:02:03;1.57;;;1.27;;
8177;SDS011;4130;48.740;9.132;2024-03-02T16:04:31;1.73;;;1.30;;
8177;SDS011;4130;48.740;9.132;2024-03-02T16:06:58;1.80;;;1.50;;
8177;SDS011;4130;48.740;9.132;2024-03-02T16:09:26;2.87;;;1.97;;
8177;SDS011;4130;48.740;9.132;2024-03-02T16:11:54;3.03;;;1.50;;